sensor_id;sensor_type;location;lat;lon;timestamp;pressure;altitude;pressure_sealevel;temperature;humidity
61900;BME280;47853;55.890;37.664;2022-09-27T00:00:22;98954.78;;;7.91;88.69
61900;BME280;47853;55.890;37.664;2022-09-27T00:02:48;98949.91;;;8.21;87.70
61900;BME280;47853;55.890;37.664;2022-09-27T00:05:14;98958.50;;;8.23;86.36
61900;BME280;47853;55.890;37.664;2022-09-27T00:07:40;98959.31;;;8.23;85.22
61900;BME280;47853;55.890;37.664;2022-09-27T00:10:05;98948.13;;;8.46;84.72
61900;BME280;47853;55.890;37.664;2022-09-27T00:12:31;98942.69;;;8.64;83.53
61900;BME280;47853;55.890;37.664;2022-09-27T00:14:57;98945.66;;;8.69;82.56
61900;BME280;47853;55.890;37.664;2022-09-27T00:17:22;98960.03;;;8.83;81.69
61900;BME280;47853;55.890;37.664;2022-09-27T00:19:47;98948.63;;;8.58;82.01
61900;BME280;47853;55.890;37.664;2022-09-27T00:22:12;98951.59;;;8.55;82.42
61900;BME280;47853;55.890;37.664;2022-09-27T00:24:38;98935.38;;;8.50;82.45
61900;BME280;47853;55.890;37.664;2022-09-27T00:27:03;98952.94;;;8.51;82.63
61900;BME280;47853;55.890;37.664;2022-09-27T00:29:28;98956.72;;;8.48;82.93
61900;BME280;47853;55.890;37.664;2022-09-27T00:31:54;98940.34;;;8.78;82.29
61900;BME280;47853;55.890;37.664;2022-09-27T00:34:24;98946.41;;;8.20;81.82
61900;BME280;47853;55.890;37.664;2022-09-27T00:36:50;98954.69;;;7.66;83.74
61900;BME280;47853;55.890;37.664;2022-09-27T00:39:16;98952.59;;;7.78;85.35
61900;BME280;47853;55.890;37.664;2022-09-27T00:41:42;98970.13;;;7.87;85.44
61900;BME280;47853;55.890;37.664;2022-09-27T00:49:35;98963.03;;;8.55;83.73
61900;BME280;47853;55.890;37.664;2022-09-27T00:55:05;98967.31;;;8.81;80.48
61900;BME280;47853;55.890;37.664;2022-09-27T00:57:31;98975.25;;;8.98;80.10
61900;BME280;47853;55.890;37.664;2022-09-27T01:00:15;98962.81;;;9.15;79.27
61900;BME280;47853;55.890;37.664;2022-09-27T01:02:44;98956.44;;;9.41;78.32
61900;BME280;47853;55.890;37.664;2022-09-27T01:05:13;98964.38;;;9.41;77.54
61900;BME280;47853;55.890;37.664;2022-09-27T01:07:38;98963.16;;;9.12;77.44
61900;BME280;47853;55.890;37.664;2022-09-27T01:10:04;98964.81;;;8.96;77.88
61900;BME280;47853;55.890;37.664;2022-09-27T01:23:45;98950.78;;;8.63;78.95
61900;BME280;47853;55.890;37.664;2022-09-27T01:29:14;98950.94;;;8.86;78.04
61900;BME280;47853;55.890;37.664;2022-09-27T01:31:52;98952.56;;;8.95;77.55
61900;BME280;47853;55.890;37.664;2022-09-27T01:34:34;98939.00;;;8.32;78.09
61900;BME280;47853;55.890;37.664;2022-09-27T01:40:01;98947.63;;;8.51;79.11
61900;BME280;47853;55.890;37.664;2022-09-27T01:43:21;98955.06;;;8.72;78.65
61900;BME280;47853;55.890;37.664;2022-09-27T01:45:32;98944.81;;;8.85;77.88
61900;BME280;47853;55.890;37.664;2022-09-27T01:48:06;98944.81;;;8.94;76.87
61900;BME280;47853;55.890;37.664;2022-09-27T01:53:36;98935.88;;;8.78;76.62
61900;BME280;47853;55.890;37.664;2022-09-27T01:56:06;98929.09;;;8.84;76.40
61900;BME280;47853;55.890;37.664;2022-09-27T01:58:52;98939.50;;;8.77;76.19
61900;BME280;47853;55.890;37.664;2022-09-27T02:01:21;98930.75;;;8.60;76.69
61900;BME280;47853;55.890;37.664;2022-09-27T02:03:49;98937.22;;;8.58;77.07
61900;BME280;47853;55.890;37.664;2022-09-27T02:06:37;98940.16;;;8.96;76.90
61900;BME280;47853;55.890;37.664;2022-09-27T02:11:41;98951.28;;;8.75;76.27
61900;BME280;47853;55.890;37.664;2022-09-27T02:14:18;98950.28;;;8.76;76.55
61900;BME280;47853;55.890;37.664;2022-09-27T02:16:54;98932.72;;;8.41;76.80
61900;BME280;47853;55.890;37.664;2022-09-27T02:24:45;98939.88;;;8.58;76.74
61900;BME280;47853;55.890;37.664;2022-09-27T02:27:17;98936.38;;;8.57;76.67
61900;BME280;47853;55.890;37.664;2022-09-27T02:29:51;98941.38;;;8.68;76.17
61900;BME280;47853;55.890;37.664;2022-09-27T02:32:17;98958.72;;;8.88;75.89
61900;BME280;47853;55.890;37.664;2022-09-27T02:34:43;98953.06;;;8.41;75.92
61900;BME280;47853;55.890;37.664;2022-09-27T02:37:10;98951.03;;;8.02;76.69
61900;BME280;47853;55.890;37.664;2022-09-27T02:39:35;98945.53;;;7.87;77.73
61900;BME280;47853;55.890;37.664;2022-09-27T02:42:02;98936.97;;;8.01;77.75
61900;BME280;47853;55.890;37.664;2022-09-27T02:44:28;98957.31;;;8.09;77.78
61900;BME280;47853;55.890;37.664;2022-09-27T02:47:12;98964.13;;;8.28;77.53
61900;BME280;47853;55.890;37.664;2022-09-27T02:55:03;98960.03;;;8.42;77.39
61900;BME280;47853;55.890;37.664;2022-09-27T03:00:15;98944.63;;;8.37;76.36
61900;BME280;47853;55.890;37.664;2022-09-27T03:03:01;98964.00;;;8.46;76.40
61900;BME280;47853;55.890;37.664;2022-09-27T03:05:34;98959.19;;;8.41;76.20
61900;BME280;47853;55.890;37.664;2022-09-27T03:08:02;98975.75;;;8.60;75.68
61900;BME280;47853;55.890;37.664;2022-09-27T03:10:28;98979.00;;;8.29;76.49
61900;BME280;47853;55.890;37.664;2022-09-27T03:12:55;98978.50;;;8.25;77.01
61900;BME280;47853;55.890;37.664;2022-09-27T03:15:21;98964.31;;;8.43;76.77
61900;BME280;47853;55.890;37.664;2022-09-27T03:17:46;98960.72;;;8.52;76.52
61900;BME280;47853;55.890;37.664;2022-09-27T03:20:11;98978.56;;;8.67;75.82
61900;BME280;47853;55.890;37.664;2022-09-27T03:22:37;98983.06;;;8.66;75.50
61900;BME280;47853;55.890;37.664;2022-09-27T03:25:04;98983.00;;;8.41;75.44
61900;BME280;47853;55.890;37.664;2022-09-27T03:27:29;98972.53;;;8.15;76.13
61900;BME280;47853;55.890;37.664;2022-09-27T03:29:55;98979.63;;;8.15;76.27
61900;BME280;47853;55.890;37.664;2022-09-27T03:32:20;98962.63;;;8.25;76.50
61900;BME280;47853;55.890;37.664;2022-09-27T03:34:46;98973.28;;;8.50;75.84
61900;BME280;47853;55.890;37.664;2022-09-27T03:37:11;98988.47;;;8.48;75.26
61900;BME280;47853;55.890;37.664;2022-09-27T03:39:36;98963.94;;;8.21;75.08
61900;BME280;47853;55.890;37.664;2022-09-27T03:42:02;98968.09;;;8.40;75.06
61900;BME280;47853;55.890;37.664;2022-09-27T03:44:27;98972.53;;;8.07;75.58
61900;BME280;47853;55.890;37.664;2022-09-27T03:46:52;98963.75;;;8.06;75.81
61900;BME280;47853;55.890;37.664;2022-09-27T03:49:18;98982.00;;;8.42;75.85
61900;BME280;47853;55.890;37.664;2022-09-27T03:51:43;98992.63;;;8.59;75.41
61900;BME280;47853;55.890;37.664;2022-09-27T03:54:09;98964.31;;;8.43;74.59
61900;BME280;47853;55.890;37.664;2022-09-27T03:56:34;98982.22;;;8.66;74.29
61900;BME280;47853;55.890;37.664;2022-09-27T03:58:59;98988.00;;;8.78;74.03
61900;BME280;47853;55.890;37.664;2022-09-27T04:01:25;98981.38;;;8.57;74.34
61900;BME280;47853;55.890;37.664;2022-09-27T04:03:50;98988.13;;;8.43;74.68
61900;BME280;47853;55.890;37.664;2022-09-27T04:06:15;98981.19;;;7.74;76.38
61900;BME280;47853;55.890;37.664;2022-09-27T04:08:41;98994.88;;;8.29;76.72
61900;BME280;47853;55.890;37.664;2022-09-27T04:11:06;98988.50;;;8.56;76.53
61900;BME280;47853;55.890;37.664;2022-09-27T04:13:31;98994.56;;;8.32;76.72
61900;BME280;47853;55.890;37.664;2022-09-27T04:15:57;98988.97;;;8.52;76.69
61900;BME280;47853;55.890;37.664;2022-09-27T04:18:22;98989.00;;;8.68;76.88
61900;BME280;47853;55.890;37.664;2022-09-27T04:20:47;98995.59;;;8.56;77.40
61900;BME280;47853;55.890;37.664;2022-09-27T04:23:13;98988.16;;;8.51;77.64
61900;BME280;47853;55.890;37.664;2022-09-27T04:25:38;98982.84;;;8.43;78.00
61900;BME280;47853;55.890;37.664;2022-09-27T04:28:03;98988.94;;;8.35;78.47
61900;BME280;47853;55.890;37.664;2022-09-27T04:30:29;98994.09;;;8.45;79.00
61900;BME280;47853;55.890;37.664;2022-09-27T04:32:57;98998.34;;;8.21;79.11
61900;BME280;47853;55.890;37.664;2022-09-27T04:35:23;98972.75;;;7.79;79.52
61900;BME280;47853;55.890;37.664;2022-09-27T04:37:48;99005.31;;;7.79;80.13
61900;BME280;47853;55.890;37.664;2022-09-27T04:40:14;98981.47;;;8.14;80.15
61900;BME280;47853;55.890;37.664;2022-09-27T04:42:39;98996.88;;;8.44;79.18
61900;BME280;47853;55.890;37.664;2022-09-27T04:45:05;99006.16;;;8.48;78.91
61900;BME280;47853;55.890;37.664;2022-09-27T04:47:30;99004.63;;;8.28;78.65
61900;BME280;47853;55.890;37.664;2022-09-27T04:49:56;99001.66;;;8.23;79.14
61900;BME280;47853;55.890;37.664;2022-09-27T04:52:21;99000.75;;;8.49;79.07
61900;BME280;47853;55.890;37.664;2022-09-27T04:54:46;98987.63;;;8.39;78.97
61900;BME280;47853;55.890;37.664;2022-09-27T04:57:11;98986.09;;;8.20;79.24
61900;BME280;47853;55.890;37.664;2022-09-27T04:59:37;99004.72;;;7.94;80.15
61900;BME280;47853;55.890;37.664;2022-09-27T05:02:02;99002.09;;;8.10;80.77
61900;BME280;47853;55.890;37.664;2022-09-27T05:04:27;99005.91;;;8.00;81.19
61900;BME280;47853;55.890;37.664;2022-09-27T05:06:53;99001.13;;;8.11;81.30
61900;BME280;47853;55.890;37.664;2022-09-27T05:09:19;99005.72;;;8.61;80.73
61900;BME280;47853;55.890;37.664;2022-09-27T05:11:44;98996.28;;;8.83;80.04
61900;BME280;47853;55.890;37.664;2022-09-27T05:14:10;98998.25;;;8.56;79.21
61900;BME280;47853;55.890;37.664;2022-09-27T05:16:35;99007.00;;;8.40;79.17
61900;BME280;47853;55.890;37.664;2022-09-27T05:19:02;99009.63;;;8.48;79.67
61900;BME280;47853;55.890;37.664;2022-09-27T05:21:27;99014.16;;;8.89;79.51
61900;BME280;47853;55.890;37.664;2022-09-27T05:23:53;99009.69;;;8.90;78.75
61900;BME280;47853;55.890;37.664;2022-09-27T05:26:18;99003.09;;;8.85;78.52
61900;BME280;47853;55.890;37.664;2022-09-27T05:28:44;98995.97;;;8.78;77.96
61900;BME280;47853;55.890;37.664;2022-09-27T05:31:09;98997.44;;;8.64;78.46
61900;BME280;47853;55.890;37.664;2022-09-27T05:33:34;99003.56;;;8.89;78.36
61900;BME280;47853;55.890;37.664;2022-09-27T05:36:00;98979.38;;;8.92;78.56
61900;BME280;47853;55.890;37.664;2022-09-27T05:38:25;98997.91;;;9.17;77.83
61900;BME280;47853;55.890;37.664;2022-09-27T05:40:51;99007.78;;;9.40;77.27
61900;BME280;47853;55.890;37.664;2022-09-27T05:43:17;99008.44;;;9.50;76.77
61900;BME280;47853;55.890;37.664;2022-09-27T05:45:42;99005.97;;;9.49;76.15
61900;BME280;47853;55.890;37.664;2022-09-27T05:48:09;99001.69;;;9.39;76.29
61900;BME280;47853;55.890;37.664;2022-09-27T05:50:34;99004.94;;;9.58;75.73
61900;BME280;47853;55.890;37.664;2022-09-27T05:53:00;99001.56;;;10.12;75.29
61900;BME280;47853;55.890;37.664;2022-09-27T05:55:25;99001.16;;;10.24;72.96
61900;BME280;47853;55.890;37.664;2022-09-27T05:58:01;99001.41;;;10.46;72.62
61900;BME280;47853;55.890;37.664;2022-09-27T06:00:28;98981.63;;;10.16;73.14
61900;BME280;47853;55.890;37.664;2022-09-27T06:02:55;99001.56;;;10.12;73.68
61900;BME280;47853;55.890;37.664;2022-09-27T06:05:21;99008.81;;;10.19;74.02
61900;BME280;47853;55.890;37.664;2022-09-27T06:07:47;99006.72;;;10.37;73.53
61900;BME280;47853;55.890;37.664;2022-09-27T06:10:12;98984.78;;;10.12;73.60
61900;BME280;47853;55.890;37.664;2022-09-27T06:12:38;99009.25;;;10.30;73.70
61900;BME280;47853;55.890;37.664;2022-09-27T06:15:03;99000.56;;;10.45;72.88
61900;BME280;47853;55.890;37.664;2022-09-27T06:17:29;98983.16;;;10.42;72.66
61900;BME280;47853;55.890;37.664;2022-09-27T06:19:57;98999.91;;;10.11;72.72
61900;BME280;47853;55.890;37.664;2022-09-27T06:22:23;99002.56;;;10.11;73.99
61900;BME280;47853;55.890;37.664;2022-09-27T06:24:48;98994.97;;;10.32;73.58
61900;BME280;47853;55.890;37.664;2022-09-27T06:27:13;99003.75;;;10.32;73.12
61900;BME280;47853;55.890;37.664;2022-09-27T06:29:39;98987.94;;;9.84;74.15
61900;BME280;47853;55.890;37.664;2022-09-27T06:32:04;98986.69;;;10.03;74.65
61900;BME280;47853;55.890;37.664;2022-09-27T06:34:30;98940.31;;;10.22;73.58
61900;BME280;47853;55.890;37.664;2022-09-27T06:36:55;98996.59;;;10.64;73.04
61900;BME280;47853;55.890;37.664;2022-09-27T06:39:20;99002.56;;;10.43;72.85
61900;BME280;47853;55.890;37.664;2022-09-27T06:41:51;98932.78;;;10.02;73.16
61900;BME280;47853;55.890;37.664;2022-09-27T06:44:16;98936.88;;;10.13;72.91
61900;BME280;47853;55.890;37.664;2022-09-27T06:46:42;98943.25;;;9.72;73.75
61900;BME280;47853;55.890;37.664;2022-09-27T06:49:09;98937.94;;;9.72;74.12
61900;BME280;47853;55.890;37.664;2022-09-27T06:51:35;98952.50;;;10.08;74.77
61900;BME280;47853;55.890;37.664;2022-09-27T06:54:00;98990.16;;;10.82;73.10
61900;BME280;47853;55.890;37.664;2022-09-27T06:56:25;98950.28;;;11.50;71.49
61900;BME280;47853;55.890;37.664;2022-09-27T06:58:51;98977.03;;;11.49;69.99
61900;BME280;47853;55.890;37.664;2022-09-27T07:01:16;98975.84;;;11.21;70.14
61900;BME280;47853;55.890;37.664;2022-09-27T07:03:42;98979.25;;;10.77;70.72
61900;BME280;47853;55.890;37.664;2022-09-27T07:06:16;98988.28;;;10.67;71.58
61900;BME280;47853;55.890;37.664;2022-09-27T07:08:41;98985.94;;;10.49;72.01
61900;BME280;47853;55.890;37.664;2022-09-27T07:11:07;98974.28;;;10.73;71.92
61900;BME280;47853;55.890;37.664;2022-09-27T07:13:32;98982.66;;;10.85;71.20
61900;BME280;47853;55.890;37.664;2022-09-27T07:15:58;98980.56;;;10.96;71.06
61900;BME280;47853;55.890;37.664;2022-09-27T07:18:24;98987.03;;;11.61;69.66
61900;BME280;47853;55.890;37.664;2022-09-27T07:20:49;98983.09;;;11.72;67.97
61900;BME280;47853;55.890;37.664;2022-09-27T07:23:15;98980.75;;;10.94;69.37
61900;BME280;47853;55.890;37.664;2022-09-27T07:25:40;98994.50;;;10.98;69.75
61900;BME280;47853;55.890;37.664;2022-09-27T07:28:08;99007.88;;;10.66;70.65
61900;BME280;47853;55.890;37.664;2022-09-27T07:30:35;99004.16;;;10.76;70.93
61900;BME280;47853;55.890;37.664;2022-09-27T07:33:03;98996.78;;;10.86;70.96
61900;BME280;47853;55.890;37.664;2022-09-27T07:35:29;99005.50;;;11.63;69.67
61900;BME280;47853;55.890;37.664;2022-09-27T07:37:55;98999.09;;;12.24;66.99
61900;BME280;47853;55.890;37.664;2022-09-27T07:40:20;98997.94;;;12.33;64.79
61900;BME280;47853;55.890;37.664;2022-09-27T07:42:46;98998.31;;;12.09;65.34
61900;BME280;47853;55.890;37.664;2022-09-27T07:45:11;99003.91;;;11.69;66.25
61900;BME280;47853;55.890;37.664;2022-09-27T07:47:38;99007.47;;;11.91;66.92
61900;BME280;47853;55.890;37.664;2022-09-27T07:50:05;99009.19;;;12.29;66.07
61900;BME280;47853;55.890;37.664;2022-09-27T07:52:38;98999.38;;;12.14;66.34
61900;BME280;47853;55.890;37.664;2022-09-27T07:55:07;98996.06;;;12.49;65.60
61900;BME280;47853;55.890;37.664;2022-09-27T07:57:33;98970.69;;;12.75;63.28
61900;BME280;47853;55.890;37.664;2022-09-27T07:59:58;98995.19;;;12.85;63.60
61900;BME280;47853;55.890;37.664;2022-09-27T08:02:24;98995.75;;;12.59;63.55
61900;BME280;47853;55.890;37.664;2022-09-27T08:04:49;98986.03;;;12.95;63.74
61900;BME280;47853;55.890;37.664;2022-09-27T08:07:14;98993.16;;;12.87;63.40
61900;BME280;47853;55.890;37.664;2022-09-27T08:09:40;98988.13;;;12.77;63.63
61900;BME280;47853;55.890;37.664;2022-09-27T08:12:05;98985.28;;;12.57;64.50
61900;BME280;47853;55.890;37.664;2022-09-27T08:14:31;98975.75;;;13.20;63.55
61900;BME280;47853;55.890;37.664;2022-09-27T08:16:56;98991.09;;;14.37;60.42
61900;BME280;47853;55.890;37.664;2022-09-27T08:19:22;98975.84;;;15.52;57.02
61900;BME280;47853;55.890;37.664;2022-09-27T08:21:47;98984.41;;;15.81;54.18
61900;BME280;47853;55.890;37.664;2022-09-27T08:24:13;98990.81;;;15.80;54.27
61900;BME280;47853;55.890;37.664;2022-09-27T08:26:39;98986.56;;;16.82;51.12
61900;BME280;47853;55.890;37.664;2022-09-27T08:29:05;98980.25;;;17.20;50.21
61900;BME280;47853;55.890;37.664;2022-09-27T08:31:30;98990.75;;;17.03;50.14
61900;BME280;47853;55.890;37.664;2022-09-27T08:33:56;98992.22;;;17.24;49.88
61900;BME280;47853;55.890;37.664;2022-09-27T08:36:21;98992.16;;;18.06;48.02
61900;BME280;47853;55.890;37.664;2022-09-27T08:38:50;98976.28;;;17.04;49.25
61900;BME280;47853;55.890;37.664;2022-09-27T08:49:22;98984.63;;;18.15;46.76
61900;BME280;47853;55.890;37.664;2022-09-27T08:51:50;98974.34;;;16.86;49.67
61900;BME280;47853;55.890;37.664;2022-09-27T08:54:22;98978.91;;;16.21;52.29
61900;BME280;47853;55.890;37.664;2022-09-27T08:56:48;98987.63;;;17.69;49.08
61900;BME280;47853;55.890;37.664;2022-09-27T08:59:23;98980.59;;;18.78;45.84
61900;BME280;47853;55.890;37.664;2022-09-27T09:01:52;98973.59;;;19.37;44.63
61900;BME280;47853;55.890;37.664;2022-09-27T09:04:27;98952.31;;;19.76;43.61
61900;BME280;47853;55.890;37.664;2022-09-27T09:12:52;98978.63;;;18.97;44.56
61900;BME280;47853;55.890;37.664;2022-09-27T09:15:44;98986.06;;;18.95;44.46
61900;BME280;47853;55.890;37.664;2022-09-27T09:26:37;98980.59;;;17.87;47.32
61900;BME280;47853;55.890;37.664;2022-09-27T09:29:32;98988.75;;;18.72;44.56
61900;BME280;47853;55.890;37.664;2022-09-27T09:32:04;98977.78;;;19.68;43.17
61900;BME280;47853;55.890;37.664;2022-09-27T09:34:41;98973.91;;;19.64;42.50
61900;BME280;47853;55.890;37.664;2022-09-27T09:37:15;98976.81;;;20.16;41.07
61900;BME280;47853;55.890;37.664;2022-09-27T09:42:14;98982.06;;;19.93;40.16
61900;BME280;47853;55.890;37.664;2022-09-27T09:44:53;98973.94;;;19.52;41.43
61900;BME280;47853;55.890;37.664;2022-09-27T09:49:57;98974.47;;;18.29;42.87
61900;BME280;47853;55.890;37.664;2022-09-27T09:52:35;98973.41;;;17.99;44.25
61900;BME280;47853;55.890;37.664;2022-09-27T09:55:18;98967.31;;;17.73;44.22
61900;BME280;47853;55.890;37.664;2022-09-27T10:00:47;98965.09;;;18.62;42.32
61900;BME280;47853;55.890;37.664;2022-09-27T10:03:13;98969.59;;;18.92;41.81
61900;BME280;47853;55.890;37.664;2022-09-27T10:05:42;98963.78;;;19.07;41.67
61900;BME280;47853;55.890;37.664;2022-09-27T10:08:15;98973.34;;;18.91;42.47
61900;BME280;47853;55.890;37.664;2022-09-27T10:10:42;98957.91;;;19.86;40.67
61900;BME280;47853;55.890;37.664;2022-09-27T10:13:14;98957.59;;;19.95;39.10
61900;BME280;47853;55.890;37.664;2022-09-27T10:15:40;98960.47;;;19.52;40.66
61900;BME280;47853;55.890;37.664;2022-09-27T10:18:14;98955.03;;;19.64;39.67
61900;BME280;47853;55.890;37.664;2022-09-27T10:21:01;98952.88;;;20.02;39.06
61900;BME280;47853;55.890;37.664;2022-09-27T10:23:28;98953.25;;;21.87;36.54
61900;BME280;47853;55.890;37.664;2022-09-27T10:25:56;98955.66;;;22.66;34.92
61900;BME280;47853;55.890;37.664;2022-09-27T10:31:04;98955.91;;;20.52;36.85
61900;BME280;47853;55.890;37.664;2022-09-27T10:33:31;98943.47;;;19.64;38.28
61900;BME280;47853;55.890;37.664;2022-09-27T10:35:57;98950.56;;;19.29;40.27
61900;BME280;47853;55.890;37.664;2022-09-27T10:38:24;98954.25;;;19.64;39.30
61900;BME280;47853;55.890;37.664;2022-09-27T10:40:53;98950.66;;;20.62;37.97
61900;BME280;47853;55.890;37.664;2022-09-27T10:43:33;98945.44;;;20.09;37.99
61900;BME280;47853;55.890;37.664;2022-09-27T10:46:17;98945.84;;;20.01;37.89
61900;BME280;47853;55.890;37.664;2022-09-27T10:48:46;98939.75;;;18.93;40.14
61900;BME280;47853;55.890;37.664;2022-09-27T10:51:50;98935.78;;;17.50;43.47
61900;BME280;47853;55.890;37.664;2022-09-27T10:54:22;98935.78;;;17.99;43.58
61900;BME280;47853;55.890;37.664;2022-09-27T10:57:03;98937.00;;;18.46;42.54
61900;BME280;47853;55.890;37.664;2022-09-27T10:59:33;98917.78;;;19.08;40.80
61900;BME280;47853;55.890;37.664;2022-09-27T11:02:00;98914.13;;;19.91;39.60
61900;BME280;47853;55.890;37.664;2022-09-27T11:04:32;98922.28;;;20.25;38.90
61900;BME280;47853;55.890;37.664;2022-09-27T11:07:17;98930.44;;;19.08;36.29
61900;BME280;47853;55.890;37.664;2022-09-27T11:09:55;98902.25;;;16.96;39.63
61900;BME280;47853;55.890;37.664;2022-09-27T11:12:21;98925.78;;;18.06;38.87
61900;BME280;47853;55.890;37.664;2022-09-27T11:15:15;98919.91;;;17.30;38.48
61900;BME280;47853;55.890;37.664;2022-09-27T11:23:55;98925.56;;;14.95;46.38
61900;BME280;47853;55.890;37.664;2022-09-27T11:32:27;98921.41;;;17.93;39.64
61900;BME280;47853;55.890;37.664;2022-09-27T11:37:49;98905.72;;;20.51;35.78
61900;BME280;47853;55.890;37.664;2022-09-27T11:40:43;98901.25;;;20.56;35.84
61900;BME280;47853;55.890;37.664;2022-09-27T11:46:21;98908.56;;;20.78;35.01
61900;BME280;47853;55.890;37.664;2022-09-27T11:51:56;98915.03;;;19.56;36.33
61900;BME280;47853;55.890;37.664;2022-09-27T11:59:56;98894.63;;;21.21;32.58
61900;BME280;47853;55.890;37.664;2022-09-27T12:05:22;98896.78;;;22.78;30.60
61900;BME280;47853;55.890;37.664;2022-09-27T12:10:30;98892.13;;;22.73;30.17
61900;BME280;47853;55.890;37.664;2022-09-27T12:12:56;98892.38;;;20.78;33.40
61900;BME280;47853;55.890;37.664;2022-09-27T12:15:25;98885.53;;;20.88;34.12
61900;BME280;47853;55.890;37.664;2022-09-27T12:17:55;98893.34;;;21.68;32.92
61900;BME280;47853;55.890;37.664;2022-09-27T12:20:34;98895.50;;;22.53;31.90
61900;BME280;47853;55.890;37.664;2022-09-27T12:23:07;98884.56;;;21.61;31.33
61900;BME280;47853;55.890;37.664;2022-09-27T12:25:37;98878.34;;;21.15;32.52
61900;BME280;47853;55.890;37.664;2022-09-27T12:30:56;98877.91;;;20.67;33.65
61900;BME280;47853;55.890;37.664;2022-09-27T12:33:44;98876.03;;;21.02;32.42
61900;BME280;47853;55.890;37.664;2022-09-27T12:36:15;98866.31;;;21.46;32.33
61900;BME280;47853;55.890;37.664;2022-09-27T12:38:52;98859.38;;;20.71;32.12
61900;BME280;47853;55.890;37.664;2022-09-27T12:41:21;98861.03;;;19.63;34.49
61900;BME280;47853;55.890;37.664;2022-09-27T12:43:51;98856.28;;;19.41;35.09
61900;BME280;47853;55.890;37.664;2022-09-27T12:49:11;98859.38;;;19.33;36.13
61900;BME280;47853;55.890;37.664;2022-09-27T12:51:44;98851.44;;;19.55;35.76
61900;BME280;47853;55.890;37.664;2022-09-27T13:11:12;98843.09;;;19.97;36.58
61900;BME280;47853;55.890;37.664;2022-09-27T13:13:11;98839.25;;;19.93;34.83
61900;BME280;47853;55.890;37.664;2022-09-27T13:15:39;98848.53;;;20.49;35.33
61900;BME280;47853;55.890;37.664;2022-09-27T13:20:55;98844.91;;;19.92;35.47
61900;BME280;47853;55.890;37.664;2022-09-27T13:31:05;98838.88;;;19.32;35.05
61900;BME280;47853;55.890;37.664;2022-09-27T13:38:31;98834.53;;;18.42;37.46
61900;BME280;47853;55.890;37.664;2022-09-27T13:41:17;98830.63;;;18.14;37.65
61900;BME280;47853;55.890;37.664;2022-09-27T13:43:56;98813.69;;;18.25;38.41
61900;BME280;47853;55.890;37.664;2022-09-27T13:46:26;98814.16;;;18.22;37.86
61900;BME280;47853;55.890;37.664;2022-09-27T13:48:56;98820.00;;;18.19;37.41
61900;BME280;47853;55.890;37.664;2022-09-27T13:53:59;98829.13;;;18.66;38.03
61900;BME280;47853;55.890;37.664;2022-09-27T14:04:45;98824.50;;;17.15;39.92
61900;BME280;47853;55.890;37.664;2022-09-27T14:07:13;98822.41;;;17.17;40.40
61900;BME280;47853;55.890;37.664;2022-09-27T14:09:44;98814.66;;;16.90;41.21
61900;BME280;47853;55.890;37.664;2022-09-27T14:12:31;98813.38;;;17.30;39.33
61900;BME280;47853;55.890;37.664;2022-09-27T14:14:58;98809.19;;;16.78;40.49
61900;BME280;47853;55.890;37.664;2022-09-27T14:17:25;98813.47;;;16.42;41.44
61900;BME280;47853;55.890;37.664;2022-09-27T14:19:51;98812.91;;;16.08;41.50
61900;BME280;47853;55.890;37.664;2022-09-27T14:22:20;98815.81;;;16.06;41.88
61900;BME280;47853;55.890;37.664;2022-09-27T14:24:50;98818.72;;;15.27;43.44
61900;BME280;47853;55.890;37.664;2022-09-27T14:29:51;98826.72;;;14.41;45.88
61900;BME280;47853;55.890;37.664;2022-09-27T14:32:24;98808.63;;;14.23;46.61
61900;BME280;47853;55.890;37.664;2022-09-27T14:35:12;98814.78;;;14.10;48.27
61900;BME280;47853;55.890;37.664;2022-09-27T14:37:38;98817.66;;;13.95;47.98
61900;BME280;47853;55.890;37.664;2022-09-27T14:40:05;98818.91;;;14.06;48.09
61900;BME280;47853;55.890;37.664;2022-09-27T14:42:34;98820.31;;;13.82;49.10
61900;BME280;47853;55.890;37.664;2022-09-27T14:45:14;98829.56;;;13.92;49.72
61900;BME280;47853;55.890;37.664;2022-09-27T14:47:49;98820.97;;;13.42;51.08
61900;BME280;47853;55.890;37.664;2022-09-27T14:50:28;98824.84;;;13.26;51.99
61900;BME280;47853;55.890;37.664;2022-09-27T14:52:56;98833.66;;;13.26;52.88
61900;BME280;47853;55.890;37.664;2022-09-27T14:55:24;98833.44;;;13.21;52.63
61900;BME280;47853;55.890;37.664;2022-09-27T14:58:00;98834.28;;;13.28;52.77
61900;BME280;47853;55.890;37.664;2022-09-27T15:00:29;98826.81;;;13.10;53.54
61900;BME280;47853;55.890;37.664;2022-09-27T15:03:00;98830.25;;;13.04;53.63
61900;BME280;47853;55.890;37.664;2022-09-27T15:05:28;98821.72;;;12.80;54.35
61900;BME280;47853;55.890;37.664;2022-09-27T15:07:55;98811.19;;;12.65;54.91
61900;BME280;47853;55.890;37.664;2022-09-27T15:10:23;98823.25;;;12.61;55.27
61900;BME280;47853;55.890;37.664;2022-09-27T15:13:00;98799.66;;;12.29;56.16
61900;BME280;47853;55.890;37.664;2022-09-27T15:15:36;98799.41;;;12.17;56.81
61900;BME280;47853;55.890;37.664;2022-09-27T15:18:22;98791.66;;;12.01;57.64
61900;BME280;47853;55.890;37.664;2022-09-27T15:20:52;98807.94;;;12.13;57.84
61900;BME280;47853;55.890;37.664;2022-09-27T15:23:29;98806.94;;;12.14;57.84
61900;BME280;47853;55.890;37.664;2022-09-27T15:28:44;98811.97;;;12.30;57.44
61900;BME280;47853;55.890;37.664;2022-09-27T15:31:10;98792.16;;;12.11;58.07
61900;BME280;47853;55.890;37.664;2022-09-27T15:33:36;98799.91;;;12.06;58.44
61900;BME280;47853;55.890;37.664;2022-09-27T15:36:06;98791.94;;;11.91;58.96
61900;BME280;47853;55.890;37.664;2022-09-27T15:38:45;98799.09;;;12.06;59.33
61900;BME280;47853;55.890;37.664;2022-09-27T15:41:15;98791.78;;;11.93;59.89
61900;BME280;47853;55.890;37.664;2022-09-27T15:43:51;98796.31;;;11.99;60.11
61900;BME280;47853;55.890;37.664;2022-09-27T15:46:34;98792.41;;;11.95;59.94
61900;BME280;47853;55.890;37.664;2022-09-27T15:49:20;98793.88;;;11.97;60.33